Big Piney, WY weather

Big Piney-Marbleton Airport (AMOS), Big Piney, WY: 4/23/2018 18:53
Visibility10 statute milesclear sky
View 7-Day Forecast
Area Summary
Sky/CloudsSky Clear
Weather [last 24 hours]None [rain began 06:24; rain ended 08:13 ]
Pressure30.21 in.Hg (1023 hPa)
Dew Point21 °F (-6.1 °C)
Relative Humidity35.4 %
Last 24-Hour Precip.0.04 in. (1.016 mm)
Reading TimePrecipitation
6-hr ending 4/23@11:530.04 in. (1.016 mm)
Temperature46.9 °F (8.3 °C)red thermometer
Wind Chill40.4 °F (4.66 °C)
Reading TimeMinimum to Maximum Temperature
6-hr ending 4/23@17:5348 °F to 55 °F (8.9 °C to 12.8 °C)
6-hr ending 4/23@11:5336 °F to 50 °F (2.2 °C to 10 °C)
6-hr ending 4/23@05:5326.1 °F to 44.1 °F (-3.3 °C to 6.7 °C)
6-hr ending 4/22@23:5335.1 °F to 64.9 °F (1.7 °C to 18.3 °C)
24-hr ending 4/23@00:5319.9 °F to 66.9 °F (-6.7 °C to 19.4 °C)
Wind16.1 MPH (14 KT) green arrow pointing 337.5 degrees
Wind FromNorth/Northwest (340 Degrees)
Rolling 24-hr Peak Wind34.5 MPH (30 KT) on 4/23@05:52
Rolling 24-hr Peak Wind FromNorth/Northwest (340 Degrees)
Twilight Begins05:54Sunshine Yesterday
Sunrise06:24N/A
Sunset20:14
Twilight Ends20:44
METARKBPI 240053Z AUTO 34014KT 10SM CLR 08/M06 A3021 RMK AO2 SLP193 T00831061
Tags: